createdAt,value
2018-12-12T00:01:44.518Z,35.63
2018-12-12T00:06:52.888Z,34.43
2018-12-12T00:11:59.645Z,33.87
2018-12-12T00:17:05.410Z,30.43
2018-12-12T00:22:11.321Z,34.07
2018-12-12T00:27:17.103Z,33.08
2018-12-12T00:32:22.978Z,31.75
2018-12-12T00:37:28.889Z,27.40
2018-12-12T00:42:34.890Z,32.77
2018-12-12T00:47:40.788Z,28.30
2018-12-12T00:52:47.066Z,24.97
2018-12-12T00:57:53.967Z,27.10
2018-12-12T01:02:59.772Z,27.23
2018-12-12T01:08:05.453Z,22.73
2018-12-12T01:13:11.245Z,30.37
2018-12-12T01:18:17.935Z,27.25
2018-12-12T01:23:23.746Z,30.37
2018-12-12T01:28:29.638Z,23.63
2018-12-12T01:33:35.501Z,23.97
2018-12-12T01:38:42.414Z,20.03
2018-12-12T01:43:49.061Z,27.67
2018-12-12T01:48:57.317Z,25.43
2018-12-12T01:54:10.050Z,21.27
2018-12-12T01:59:15.940Z,24.97
2018-12-12T02:04:21.731Z,19.03
2018-12-12T02:09:27.816Z,21.37
2018-12-12T02:14:34.721Z,21.47
2018-12-12T02:19:41.616Z,21.65
2018-12-12T02:24:47.515Z,20.43
2018-12-12T02:29:54.427Z,23.03
2018-12-12T02:35:00.490Z,20.77
2018-12-12T02:40:06.314Z,17.92
2018-12-12T02:45:12.192Z,22.33
2018-12-12T02:50:18.276Z,21.23
2018-12-12T02:55:24.293Z,19.50
2018-12-12T03:00:30.600Z,18.63
2018-12-12T03:05:36.408Z,21.20
2018-12-12T03:10:42.272Z,19.93
2018-12-12T03:15:48.131Z,19.03
2018-12-12T03:20:53.940Z,20.47
2018-12-12T03:25:59.863Z,19.67
2018-12-12T03:31:06.029Z,18.17
2018-12-12T03:36:11.807Z,14.87
2018-12-12T03:41:17.736Z,19.05
2018-12-12T03:46:23.534Z,16.50
2018-12-12T03:51:30.304Z,20.53
2018-12-12T03:56:37.667Z,15.77
2018-12-12T04:01:43.592Z,19.13
2018-12-12T04:06:49.483Z,15.57
2018-12-12T04:11:55.252Z,16.17
2018-12-12T04:17:03.518Z,20.37
2018-12-12T04:22:10.477Z,18.23
2018-12-12T04:27:17.406Z,15.70
2018-12-12T04:32:24.383Z,21.03
2018-12-12T04:37:32.370Z,16.70
2018-12-12T04:42:38.504Z,15.67
2018-12-12T04:47:44.314Z,14.90
2018-12-12T04:52:54.334Z,13.73
2018-12-12T04:58:00.903Z,19.07
2018-12-12T05:03:17.879Z,19.10
2018-12-12T05:08:24.644Z,17.13
2018-12-12T05:13:31.294Z,16.00
2018-12-12T05:18:37.283Z,16.27
2018-12-12T05:23:43.073Z,14.90
2018-12-12T05:28:49.464Z,15.97
2018-12-12T05:33:56.166Z,14.70
2018-12-12T05:39:01.951Z,16.10
2018-12-12T05:44:10.884Z,13.93
2018-12-12T05:49:17.795Z,16.47
2018-12-12T05:54:27.663Z,14.27
2018-12-12T05:59:33.584Z,15.80
2018-12-12T06:04:39.388Z,14.17
2018-12-12T06:09:46.203Z,14.33
2018-12-12T06:14:51.971Z,12.13
2018-12-12T06:19:58.088Z,15.93
2018-12-12T06:25:04.984Z,13.60
2018-12-12T06:30:11.755Z,13.93
2018-12-12T06:35:17.729Z,13.13
2018-12-12T06:40:25.320Z,16.43
2018-12-12T06:45:36.052Z,13.80
2018-12-12T06:50:41.836Z,14.37
2018-12-12T06:55:47.602Z,15.50
2018-12-12T07:00:53.518Z,13.97
2018-12-12T07:05:59.667Z,16.20
2018-12-12T07:11:05.587Z,11.47
2018-12-12T07:16:11.510Z,11.90
2018-12-12T07:21:17.789Z,13.63
2018-12-12T07:26:24.283Z,13.07
2018-12-12T07:31:30.063Z,19.33
2018-12-12T07:36:35.845Z,11.17
2018-12-12T07:41:43.006Z,13.20
2018-12-12T07:46:52.300Z,13.17
2018-12-12T07:52:01.081Z,12.47
2018-12-12T07:57:07.164Z,14.37
2018-12-12T08:02:13.959Z,14.23
2018-12-12T08:07:19.767Z,13.43
2018-12-12T08:12:25.670Z,14.33
2018-12-12T08:17:31.432Z,11.70
2018-12-12T08:22:38.332Z,13.87
2018-12-12T08:27:44.412Z,13.40
2018-12-12T08:32:50.377Z,13.57
2018-12-12T08:37:57.909Z,15.63
2018-12-12T08:43:04.892Z,14.20
2018-12-12T08:48:10.564Z,15.00
2018-12-12T08:53:16.946Z,14.30
2018-12-12T08:58:24.643Z,12.60
2018-12-12T09:03:30.435Z,17.30
2018-12-12T09:08:36.466Z,21.50
2018-12-12T09:13:42.466Z,17.80
2018-12-12T09:18:50.214Z,14.90
2018-12-12T09:23:55.997Z,13.97
2018-12-12T09:29:01.977Z,16.20
2018-12-12T09:34:10.460Z,17.35
2018-12-12T09:39:16.474Z,15.90
2018-12-12T09:44:23.542Z,15.97
2018-12-12T09:49:29.314Z,14.43
2018-12-12T09:54:37.124Z,17.10
2018-12-12T09:59:45.467Z,16.87
2018-12-12T10:04:51.248Z,17.57
2018-12-12T10:09:57.105Z,17.50
2018-12-12T10:15:03.005Z,16.43
2018-12-12T10:20:09.149Z,15.07
2018-12-12T10:25:15.040Z,14.30
2018-12-12T10:30:21.807Z,16.83
2018-12-12T10:35:28.606Z,18.20
2018-12-12T10:40:34.370Z,16.37
2018-12-12T10:45:40.155Z,13.47
2018-12-12T10:50:46.053Z,16.60
2018-12-12T10:55:51.923Z,14.87
2018-12-12T11:01:03.052Z,17.57
2018-12-12T11:06:08.918Z,13.10
2018-12-12T11:11:14.729Z,14.13
2018-12-12T11:16:21.584Z,12.88
2018-12-12T11:21:27.340Z,13.33
2018-12-12T11:26:33.295Z,16.10
2018-12-12T11:31:39.082Z,12.93
2018-12-12T11:36:44.985Z,14.73
2018-12-12T11:41:51.412Z,19.77
2018-12-12T11:46:58.031Z,12.30
2018-12-12T11:52:05.531Z,15.53
2018-12-12T11:57:11.749Z,11.53
2018-12-12T12:02:17.578Z,15.28
2018-12-12T12:07:23.496Z,12.17
2018-12-12T12:12:31.049Z,11.83
2018-12-12T12:17:36.815Z,13.00
2018-12-12T12:22:42.703Z,12.50
2018-12-12T12:27:48.548Z,12.10
2018-12-12T12:32:55.092Z,15.87
2018-12-12T12:38:00.873Z,15.57
2018-12-12T12:43:07.823Z,15.60
2018-12-12T12:48:13.608Z,16.90
2018-12-12T12:53:19.495Z,16.63
2018-12-12T12:58:27.317Z,11.80
2018-12-12T13:03:34.447Z,12.27
2018-12-12T13:08:42.242Z,11.60
2018-12-12T13:13:48.310Z,11.00
2018-12-12T13:18:54.418Z,12.27
2018-12-12T13:24:00.477Z,13.80
2018-12-12T13:29:06.430Z,13.60
2018-12-12T13:34:16.412Z,13.87
2018-12-12T13:39:21.947Z,15.27
2018-12-12T13:44:30.942Z,16.37
2018-12-12T13:49:36.758Z,15.40
2018-12-12T13:54:42.502Z,16.37
2018-12-12T13:59:48.448Z,18.83
2018-12-12T14:04:54.544Z,25.20
2018-12-12T14:10:00.351Z,20.97
2018-12-12T14:15:06.662Z,16.17
2018-12-12T14:20:14.900Z,22.50
2018-12-12T14:25:21.875Z,19.20
2018-12-12T14:30:28.959Z,18.53
2018-12-12T14:35:36.015Z,20.50
2018-12-12T14:40:43.420Z,20.00
2018-12-12T14:45:49.197Z,19.37
2018-12-12T14:50:56.318Z,30.60
2018-12-12T14:56:03.299Z,30.03
2018-12-12T15:01:09.221Z,28.17
2018-12-12T15:06:15.444Z,32.40
2018-12-12T15:11:21.247Z,35.47
2018-12-12T15:16:28.655Z,35.47
2018-12-12T15:21:34.606Z,31.90
2018-12-12T15:26:40.494Z,27.37
2018-12-12T15:31:46.297Z,27.50
2018-12-12T15:36:53.160Z,26.53
2018-12-12T15:41:58.978Z,29.57
2018-12-12T15:47:06.018Z,25.73
2018-12-12T15:52:12.841Z,28.80
2018-12-12T15:57:18.694Z,30.43
2018-12-12T16:02:24.532Z,35.27
2018-12-12T16:07:30.343Z,76.65
2018-12-12T16:12:37.614Z,36.53
2018-12-12T16:17:44.990Z,24.23
2018-12-12T16:22:50.998Z,19.63
2018-12-12T16:27:56.993Z,22.27
2018-12-12T16:33:03.813Z,22.20
2018-12-12T16:38:10.778Z,20.57
2018-12-12T16:43:18.913Z,24.67
2018-12-12T16:48:26.851Z,23.53
2018-12-12T16:53:32.725Z,29.23
2018-12-12T16:58:38.542Z,29.50
2018-12-12T17:03:44.482Z,23.87
2018-12-12T17:08:50.618Z,24.23
2018-12-12T17:13:57.037Z,25.00
2018-12-12T17:19:05.170Z,26.97
2018-12-12T17:24:12.289Z,31.55
2018-12-12T17:29:18.088Z,22.27
2018-12-12T17:34:24.102Z,23.70
2018-12-12T17:39:30.104Z,21.50
2018-12-12T17:44:36.037Z,22.57
2018-12-12T17:49:41.840Z,23.20
2018-12-12T17:54:47.749Z,19.83
2018-12-12T17:59:53.548Z,21.67
2018-12-12T18:05:03.095Z,18.83
2018-12-12T18:10:10.965Z,19.63
2018-12-12T18:15:16.910Z,18.23
2018-12-12T18:20:25.760Z,24.80
2018-12-12T18:25:31.585Z,19.50
2018-12-12T18:30:38.798Z,21.67
2018-12-12T18:35:47.479Z,23.87
2018-12-12T18:40:53.451Z,28.17
2018-12-12T18:46:01.327Z,24.60
2018-12-12T18:51:07.228Z,24.50
2018-12-12T18:56:15.257Z,23.73
2018-12-12T19:01:21.187Z,23.83
2018-12-12T19:06:27.422Z,22.90
2018-12-12T19:11:33.309Z,23.10
2018-12-12T19:16:40.281Z,24.57
2018-12-12T19:21:48.547Z,26.10
2018-12-12T19:26:55.472Z,25.20
2018-12-12T19:32:02.223Z,27.93
2018-12-12T19:37:09.110Z,32.03
2018-12-12T19:42:16.035Z,28.45
2018-12-12T19:47:23.167Z,32.47
2018-12-12T19:52:29.723Z,35.43
2018-12-12T19:57:37.877Z,32.50
2018-12-12T20:02:43.775Z,25.77
2018-12-12T20:07:49.715Z,22.83
2018-12-12T20:12:56.813Z,22.57
2018-12-12T20:18:03.747Z,23.00
2018-12-12T20:23:09.993Z,26.55
2018-12-12T20:28:16.931Z,25.03
2018-12-12T20:33:25.518Z,25.63
2018-12-12T20:38:31.462Z,23.10
2018-12-12T20:43:37.404Z,27.60
2018-12-12T20:48:43.261Z,26.70
2018-12-12T20:53:49.209Z,24.50
2018-12-12T20:58:56.082Z,27.20
2018-12-12T21:04:02.983Z,28.80
2018-12-12T21:09:09.094Z,26.97
2018-12-12T21:14:15.267Z,26.90
2018-12-12T21:19:22.199Z,25.13
2018-12-12T21:24:29.255Z,27.20
2018-12-12T21:29:35.071Z,27.77
2018-12-12T21:34:40.879Z,27.83
2018-12-12T21:39:46.771Z,29.60
2018-12-12T21:44:52.577Z,27.33
2018-12-12T21:49:58.360Z,30.07
2018-12-12T21:55:05.568Z,27.57
2018-12-12T22:00:11.839Z,29.40
2018-12-12T22:05:17.872Z,32.17
2018-12-12T22:10:23.744Z,30.60
2018-12-12T22:15:29.541Z,35.10
2018-12-12T22:20:35.444Z,29.83
2018-12-12T22:25:41.437Z,28.27
2018-12-12T22:30:47.268Z,28.47
2018-12-12T22:35:53.182Z,28.97
2018-12-12T22:40:59.073Z,49.83
2018-12-12T22:46:05.446Z,27.07
2018-12-12T22:51:13.808Z,29.57
2018-12-12T22:56:19.701Z,27.73
2018-12-12T23:01:25.738Z,23.70
2018-12-12T23:06:32.341Z,20.33
2018-12-12T23:11:38.168Z,23.90
2018-12-12T23:16:44.990Z,21.60
2018-12-12T23:21:50.781Z,19.67
2018-12-12T23:26:56.564Z,22.43
2018-12-12T23:32:03.364Z,23.43
2018-12-12T23:37:10.119Z,23.57
2018-12-12T23:42:15.966Z,20.63
2018-12-12T23:47:21.709Z,23.07
2018-12-12T23:52:27.563Z,21.33
2018-12-12T23:57:34.480Z,19.50
